sensor_id;sensor_type;location;lat;lon;timestamp;pressure;altitude;pressure_sealevel;temperature;humidity
28701;BME280;15877;52.344;16.790;2024-02-16T00:02:22;100945.98;;;12.39;94.48
28701;BME280;15877;52.344;16.790;2024-02-16T00:04:55;100944.36;;;12.38;94.47
28701;BME280;15877;52.344;16.790;2024-02-16T00:07:27;100944.27;;;12.41;94.61
28701;BME280;15877;52.344;16.790;2024-02-16T00:09:59;100935.67;;;12.41;94.41
28701;BME280;15877;52.344;16.790;2024-02-16T00:12:32;100935.04;;;12.34;94.44
28701;BME280;15877;52.344;16.790;2024-02-16T00:15:04;100919.00;;;12.29;94.58
28701;BME280;15877;52.344;16.790;2024-02-16T00:17:38;100936.52;;;12.36;94.40
28701;BME280;15877;52.344;16.790;2024-02-16T00:20:12;100937.72;;;12.32;94.56
28701;BME280;15877;52.344;16.790;2024-02-16T00:22:44;100937.85;;;12.35;94.46
28701;BME280;15877;52.344;16.790;2024-02-16T00:25:16;100939.05;;;12.32;94.24
28701;BME280;15877;52.344;16.790;2024-02-16T00:27:48;100937.54;;;12.35;94.11
28701;BME280;15877;52.344;16.790;2024-02-16T00:30:21;100941.98;;;12.35;94.14
28701;BME280;15877;52.344;16.790;2024-02-16T00:32:55;100943.98;;;12.35;93.88
28701;BME280;15877;52.344;16.790;2024-02-16T00:35:27;100929.02;;;12.25;93.93
28701;BME280;15877;52.344;16.790;2024-02-16T00:38:04;100942.23;;;12.35;93.97
28701;BME280;15877;52.344;16.790;2024-02-16T00:40:39;100935.68;;;12.34;93.58
28701;BME280;15877;52.344;16.790;2024-02-16T00:43:16;100935.73;;;12.37;93.45
28701;BME280;15877;52.344;16.790;2024-02-16T00:45:49;100935.41;;;12.33;93.39
28701;BME280;15877;52.344;16.790;2024-02-16T00:48:22;100937.58;;;12.30;93.49
28701;BME280;15877;52.344;16.790;2024-02-16T00:50:55;100938.51;;;12.32;93.57
28701;BME280;15877;52.344;16.790;2024-02-16T00:53:31;100937.34;;;12.30;93.35
28701;BME280;15877;52.344;16.790;2024-02-16T00:56:07;100936.05;;;12.29;93.29
28701;BME280;15877;52.344;16.790;2024-02-16T00:58:42;100933.16;;;12.28;93.09
28701;BME280;15877;52.344;16.790;2024-02-16T01:01:17;100933.70;;;12.27;93.20
28701;BME280;15877;52.344;16.790;2024-02-16T01:03:51;100935.58;;;12.30;92.94
28701;BME280;15877;52.344;16.790;2024-02-16T01:06:23;100932.19;;;12.24;92.83
28701;BME280;15877;52.344;16.790;2024-02-16T01:08:56;100927.70;;;12.26;92.63
28701;BME280;15877;52.344;16.790;2024-02-16T01:11:28;100930.38;;;12.25;92.59
28701;BME280;15877;52.344;16.790;2024-02-16T01:14:00;100928.86;;;12.24;92.34
28701;BME280;15877;52.344;16.790;2024-02-16T01:16:32;100928.35;;;12.27;92.33
28701;BME280;15877;52.344;16.790;2024-02-16T01:19:04;100919.19;;;12.19;91.91
28701;BME280;15877;52.344;16.790;2024-02-16T01:21:38;100922.67;;;12.25;92.19
28701;BME280;15877;52.344;16.790;2024-02-16T01:24:10;100926.21;;;12.20;92.24
28701;BME280;15877;52.344;16.790;2024-02-16T01:26:45;100913.02;;;12.14;92.31
28701;BME280;15877;52.344;16.790;2024-02-16T01:29:17;100922.40;;;12.21;92.24
28701;BME280;15877;52.344;16.790;2024-02-16T01:31:49;100921.40;;;12.25;92.05
28701;BME280;15877;52.344;16.790;2024-02-16T01:34:21;100916.31;;;12.22;92.31
28701;BME280;15877;52.344;16.790;2024-02-16T01:36:56;100912.52;;;12.13;92.59
28701;BME280;15877;52.344;16.790;2024-02-16T01:39:28;100911.10;;;12.17;92.72
28701;BME280;15877;52.344;16.790;2024-02-16T01:42:00;100907.20;;;12.20;92.56
28701;BME280;15877;52.344;16.790;2024-02-16T01:44:32;100896.98;;;12.16;92.48
28701;BME280;15877;52.344;16.790;2024-02-16T01:47:07;100913.05;;;12.26;92.23
28701;BME280;15877;52.344;16.790;2024-02-16T01:49:40;100913.02;;;12.25;92.46
28701;BME280;15877;52.344;16.790;2024-02-16T01:52:12;100916.73;;;12.23;92.45
28701;BME280;15877;52.344;16.790;2024-02-16T01:54:45;100914.27;;;12.27;92.66
28701;BME280;15877;52.344;16.790;2024-02-16T01:57:17;100914.56;;;12.26;92.40
28701;BME280;15877;52.344;16.790;2024-02-16T01:59:49;100917.12;;;12.23;92.31
28701;BME280;15877;52.344;16.790;2024-02-16T02:02:22;100916.13;;;12.24;92.54
28701;BME280;15877;52.344;16.790;2024-02-16T02:04:55;100911.57;;;12.23;92.60
28701;BME280;15877;52.344;16.790;2024-02-16T02:07:27;100909.04;;;12.25;92.48
28701;BME280;15877;52.344;16.790;2024-02-16T02:10:00;100908.09;;;12.28;92.31
28701;BME280;15877;52.344;16.790;2024-02-16T02:12:33;100902.25;;;12.27;92.21
28701;BME280;15877;52.344;16.790;2024-02-16T02:15:06;100904.85;;;12.29;92.16
28701;BME280;15877;52.344;16.790;2024-02-16T02:17:39;100905.27;;;12.27;91.98
28701;BME280;15877;52.344;16.790;2024-02-16T02:20:12;100905.89;;;12.29;92.02
28701;BME280;15877;52.344;16.790;2024-02-16T02:22:46;100907.67;;;12.31;91.82
28701;BME280;15877;52.344;16.790;2024-02-16T02:25:18;100905.44;;;12.31;91.83
28701;BME280;15877;52.344;16.790;2024-02-16T02:27:53;100903.33;;;12.30;91.85
28701;BME280;15877;52.344;16.790;2024-02-16T02:30:26;100892.02;;;12.25;91.80
28701;BME280;15877;52.344;16.790;2024-02-16T02:32:58;100899.05;;;12.30;91.82
28701;BME280;15877;52.344;16.790;2024-02-16T02:35:31;100886.50;;;12.24;91.70
28701;BME280;15877;52.344;16.790;2024-02-16T02:38:04;100897.33;;;12.27;91.82
28701;BME280;15877;52.344;16.790;2024-02-16T02:40:37;100892.95;;;12.27;91.96
28701;BME280;15877;52.344;16.790;2024-02-16T02:43:09;100893.08;;;12.30;92.16
28701;BME280;15877;52.344;16.790;2024-02-16T02:45:41;100875.98;;;12.23;91.90
28701;BME280;15877;52.344;16.790;2024-02-16T02:48:14;100888.46;;;12.33;91.88
28701;BME280;15877;52.344;16.790;2024-02-16T02:50:47;100886.77;;;12.36;91.81
28701;BME280;15877;52.344;16.790;2024-02-16T02:53:20;100892.30;;;12.37;91.65
28701;BME280;15877;52.344;16.790;2024-02-16T02:55:54;100882.88;;;12.29;91.49
28701;BME280;15877;52.344;16.790;2024-02-16T02:58:26;100897.83;;;12.39;91.21
28701;BME280;15877;52.344;16.790;2024-02-16T03:00:58;100899.23;;;12.38;91.02
28701;BME280;15877;52.344;16.790;2024-02-16T03:03:30;100899.34;;;12.36;90.74
28701;BME280;15877;52.344;16.790;2024-02-16T03:06:03;100900.20;;;12.36;90.77
28701;BME280;15877;52.344;16.790;2024-02-16T03:08:36;100896.29;;;12.35;90.65
28701;BME280;15877;52.344;16.790;2024-02-16T03:11:08;100899.63;;;12.31;90.69
28701;BME280;15877;52.344;16.790;2024-02-16T03:13:41;100894.74;;;12.30;90.41
28701;BME280;15877;52.344;16.790;2024-02-16T03:16:14;100898.80;;;12.29;90.43
28701;BME280;15877;52.344;16.790;2024-02-16T03:18:46;100895.55;;;12.27;90.37
28701;BME280;15877;52.344;16.790;2024-02-16T03:21:19;100894.67;;;12.26;90.27
28701;BME280;15877;52.344;16.790;2024-02-16T03:23:53;100895.90;;;12.24;90.34
28701;BME280;15877;52.344;16.790;2024-02-16T03:26:25;100895.25;;;12.20;90.11
28701;BME280;15877;52.344;16.790;2024-02-16T03:28:57;100892.00;;;12.17;90.19
28701;BME280;15877;52.344;16.790;2024-02-16T03:31:29;100894.05;;;12.13;90.49
28701;BME280;15877;52.344;16.790;2024-02-16T03:34:04;100895.50;;;12.10;90.73
28701;BME280;15877;52.344;16.790;2024-02-16T03:36:35;100891.95;;;12.11;90.98
28701;BME280;15877;52.344;16.790;2024-02-16T03:39:08;100895.61;;;12.11;90.95
28701;BME280;15877;52.344;16.790;2024-02-16T03:41:40;100892.44;;;12.08;90.88
28701;BME280;15877;52.344;16.790;2024-02-16T03:47:44;100891.69;;;12.10;90.75
28701;BME280;15877;52.344;16.790;2024-02-16T03:50:16;100891.52;;;12.07;90.59
28701;BME280;15877;52.344;16.790;2024-02-16T03:52:49;100893.38;;;12.08;90.59
28701;BME280;15877;52.344;16.790;2024-02-16T03:55:21;100887.38;;;12.10;90.47
28701;BME280;15877;52.344;16.790;2024-02-16T03:57:53;100890.22;;;12.09;90.24
28701;BME280;15877;52.344;16.790;2024-02-16T04:00:27;100887.55;;;12.10;90.11
28701;BME280;15877;52.344;16.790;2024-02-16T04:03:00;100889.23;;;12.10;90.17
28701;BME280;15877;52.344;16.790;2024-02-16T04:05:32;100889.52;;;12.09;89.90
28701;BME280;15877;52.344;16.790;2024-02-16T04:08:07;100879.95;;;11.99;89.70
28701;BME280;15877;52.344;16.790;2024-02-16T04:10:40;100889.23;;;12.04;89.71
28701;BME280;15877;52.344;16.790;2024-02-16T04:13:12;100864.63;;;11.86;89.81
28701;BME280;15877;52.344;16.790;2024-02-16T04:15:44;100884.86;;;12.02;89.47
28701;BME280;15877;52.344;16.790;2024-02-16T04:18:18;100880.89;;;12.01;89.08
28701;BME280;15877;52.344;16.790;2024-02-16T04:20:50;100879.73;;;12.00;88.68
28701;BME280;15877;52.344;16.790;2024-02-16T04:23:22;100876.04;;;11.98;88.43
28701;BME280;15877;52.344;16.790;2024-02-16T04:25:55;100856.58;;;11.86;87.60
28701;BME280;15877;52.344;16.790;2024-02-16T04:28:28;100870.60;;;11.90;87.12
28701;BME280;15877;52.344;16.790;2024-02-16T04:31:00;100870.98;;;11.86;86.89
28701;BME280;15877;52.344;16.790;2024-02-16T04:33:34;100868.89;;;11.81;86.63
28701;BME280;15877;52.344;16.790;2024-02-16T04:36:09;100866.77;;;11.76;86.49
28701;BME280;15877;52.344;16.790;2024-02-16T04:38:42;100861.88;;;11.72;86.42
28701;BME280;15877;52.344;16.790;2024-02-16T04:41:15;100857.63;;;11.67;86.29
28701;BME280;15877;52.344;16.790;2024-02-16T04:43:47;100856.15;;;11.65;86.33
28701;BME280;15877;52.344;16.790;2024-02-16T04:46:19;100851.79;;;11.60;86.33
28701;BME280;15877;52.344;16.790;2024-02-16T04:48:52;100857.06;;;11.54;86.77
28701;BME280;15877;52.344;16.790;2024-02-16T04:51:28;100859.89;;;11.50;87.20
28701;BME280;15877;52.344;16.790;2024-02-16T04:54:00;100863.09;;;11.48;87.33
28701;BME280;15877;52.344;16.790;2024-02-16T04:56:32;100864.00;;;11.46;87.17
28701;BME280;15877;52.344;16.790;2024-02-16T04:59:04;100865.35;;;11.40;87.79
28701;BME280;15877;52.344;16.790;2024-02-16T05:01:38;100856.95;;;11.35;88.41
28701;BME280;15877;52.344;16.790;2024-02-16T05:04:10;100840.89;;;11.31;88.73
28701;BME280;15877;52.344;16.790;2024-02-16T05:06:43;100851.25;;;11.38;88.69
28701;BME280;15877;52.344;16.790;2024-02-16T05:09:18;100853.80;;;11.36;88.67
28701;BME280;15877;52.344;16.790;2024-02-16T05:11:51;100847.27;;;11.29;89.09
28701;BME280;15877;52.344;16.790;2024-02-16T05:14:23;100847.94;;;11.18;89.89
28701;BME280;15877;52.344;16.790;2024-02-16T05:16:56;100843.76;;;11.26;89.75
28701;BME280;15877;52.344;16.790;2024-02-16T05:19:33;100836.77;;;11.25;89.15
28701;BME280;15877;52.344;16.790;2024-02-16T05:22:06;100829.48;;;11.26;88.48
28701;BME280;15877;52.344;16.790;2024-02-16T05:24:38;100829.94;;;11.23;88.62
28701;BME280;15877;52.344;16.790;2024-02-16T05:27:12;100834.02;;;11.15;89.01
28701;BME280;15877;52.344;16.790;2024-02-16T05:29:50;100839.36;;;11.12;89.29
28701;BME280;15877;52.344;16.790;2024-02-16T05:32:22;100835.32;;;11.09;89.57
28701;BME280;15877;52.344;16.790;2024-02-16T05:34:55;100834.84;;;11.12;89.13
28701;BME280;15877;52.344;16.790;2024-02-16T05:37:29;100833.78;;;11.11;88.95
28701;BME280;15877;52.344;16.790;2024-02-16T05:40:09;100836.27;;;11.12;88.85
28701;BME280;15877;52.344;16.790;2024-02-16T05:42:54;100840.64;;;11.10;88.68
28701;BME280;15877;52.344;16.790;2024-02-16T05:45:35;100843.58;;;11.09;88.60
28701;BME280;15877;52.344;16.790;2024-02-16T05:48:11;100843.59;;;11.06;88.26
28701;BME280;15877;52.344;16.790;2024-02-16T05:50:46;100846.36;;;11.03;88.23
28701;BME280;15877;52.344;16.790;2024-02-16T05:53:20;100850.84;;;11.05;88.29
28701;BME280;15877;52.344;16.790;2024-02-16T05:55:55;100849.85;;;11.03;87.99
28701;BME280;15877;52.344;16.790;2024-02-16T05:58:30;100853.23;;;11.05;88.05
28701;BME280;15877;52.344;16.790;2024-02-16T06:01:05;100855.38;;;11.02;88.03
28701;BME280;15877;52.344;16.790;2024-02-16T06:03:43;100862.35;;;11.02;88.32
28701;BME280;15877;52.344;16.790;2024-02-16T06:06:16;100866.31;;;11.04;88.00
28701;BME280;15877;52.344;16.790;2024-02-16T06:08:49;100866.98;;;11.02;87.81
28701;BME280;15877;52.344;16.790;2024-02-16T06:11:23;100866.82;;;11.05;87.60
28701;BME280;15877;52.344;16.790;2024-02-16T06:13:55;100866.95;;;11.00;87.35
28701;BME280;15877;52.344;16.790;2024-02-16T06:16:29;100860.14;;;11.01;87.25
28701;BME280;15877;52.344;16.790;2024-02-16T06:19:01;100859.77;;;11.02;86.73
28701;BME280;15877;52.344;16.790;2024-02-16T06:21:34;100854.70;;;11.00;86.01
28701;BME280;15877;52.344;16.790;2024-02-16T06:24:06;100858.45;;;10.98;86.65
28701;BME280;15877;52.344;16.790;2024-02-16T06:26:39;100861.73;;;10.90;87.51
28701;BME280;15877;52.344;16.790;2024-02-16T06:29:11;100848.98;;;10.80;87.94
28701;BME280;15877;52.344;16.790;2024-02-16T06:31:44;100866.41;;;10.90;87.79
28701;BME280;15877;52.344;16.790;2024-02-16T06:34:17;100870.14;;;10.92;87.40
28701;BME280;15877;52.344;16.790;2024-02-16T06:36:50;100872.30;;;10.90;87.35
28701;BME280;15877;52.344;16.790;2024-02-16T06:39:22;100870.81;;;10.91;87.39
28701;BME280;15877;52.344;16.790;2024-02-16T06:41:54;100875.34;;;10.94;87.08
28701;BME280;15877;52.344;16.790;2024-02-16T06:44:27;100874.36;;;10.93;86.64
28701;BME280;15877;52.344;16.790;2024-02-16T06:46:59;100877.46;;;10.93;86.24
28701;BME280;15877;52.344;16.790;2024-02-16T06:49:31;100875.77;;;10.93;86.00
28701;BME280;15877;52.344;16.790;2024-02-16T06:52:03;100873.42;;;10.91;85.53
28701;BME280;15877;52.344;16.790;2024-02-16T06:54:36;100873.35;;;10.91;85.14
28701;BME280;15877;52.344;16.790;2024-02-16T06:57:08;100871.80;;;10.90;84.95
28701;BME280;15877;52.344;16.790;2024-02-16T06:59:43;100864.31;;;10.89;85.20
28701;BME280;15877;52.344;16.790;2024-02-16T07:02:15;100867.42;;;10.86;85.31
28701;BME280;15877;52.344;16.790;2024-02-16T07:04:49;100862.87;;;10.85;85.79
28701;BME280;15877;52.344;16.790;2024-02-16T07:07:21;100866.01;;;10.87;85.82
28701;BME280;15877;52.344;16.790;2024-02-16T07:09:53;100867.48;;;10.85;86.13
28701;BME280;15877;52.344;16.790;2024-02-16T07:12:26;100864.27;;;10.81;86.75
28701;BME280;15877;52.344;16.790;2024-02-16T07:14:59;100860.81;;;10.74;88.18
28701;BME280;15877;52.344;16.790;2024-02-16T07:17:31;100859.02;;;10.75;89.21
28701;BME280;15877;52.344;16.790;2024-02-16T07:20:09;100857.70;;;10.82;89.43
28701;BME280;15877;52.344;16.790;2024-02-16T07:22:41;100850.55;;;10.82;89.90
28701;BME280;15877;52.344;16.790;2024-02-16T07:25:14;100848.63;;;10.79;90.32
28701;BME280;15877;52.344;16.790;2024-02-16T07:27:46;100845.68;;;10.81;90.54
28701;BME280;15877;52.344;16.790;2024-02-16T07:30:18;100846.30;;;10.86;90.76
28701;BME280;15877;52.344;16.790;2024-02-16T07:33:03;100848.75;;;10.92;90.34
28701;BME280;15877;52.344;16.790;2024-02-16T07:35:36;100844.55;;;10.95;90.20
28701;BME280;15877;52.344;16.790;2024-02-16T07:38:09;100844.95;;;11.01;89.89
28701;BME280;15877;52.344;16.790;2024-02-16T07:40:42;100847.09;;;11.03;89.70
28701;BME280;15877;52.344;16.790;2024-02-16T07:43:16;100843.42;;;11.06;89.83
28701;BME280;15877;52.344;16.790;2024-02-16T07:45:52;100841.02;;;11.12;89.27
28701;BME280;15877;52.344;16.790;2024-02-16T07:48:25;100845.48;;;11.06;89.61
28701;BME280;15877;52.344;16.790;2024-02-16T07:50:57;100844.61;;;11.09;89.38
28701;BME280;15877;52.344;16.790;2024-02-16T07:53:33;100843.45;;;11.16;89.07
28701;BME280;15877;52.344;16.790;2024-02-16T07:56:07;100840.75;;;11.16;88.69
28701;BME280;15877;52.344;16.790;2024-02-16T07:58:42;100836.25;;;11.21;88.57
28701;BME280;15877;52.344;16.790;2024-02-16T08:01:14;100839.44;;;11.30;88.45
28701;BME280;15877;52.344;16.790;2024-02-16T08:03:47;100838.10;;;11.37;88.31
28701;BME280;15877;52.344;16.790;2024-02-16T08:06:20;100838.88;;;11.46;88.13
28701;BME280;15877;52.344;16.790;2024-02-16T08:08:57;100839.60;;;11.46;87.67
28701;BME280;15877;52.344;16.790;2024-02-16T08:11:29;100835.13;;;11.45;87.63
28701;BME280;15877;52.344;16.790;2024-02-16T08:14:01;100824.86;;;11.42;87.39
28701;BME280;15877;52.344;16.790;2024-02-16T08:16:34;100833.62;;;11.55;87.35
28701;BME280;15877;52.344;16.790;2024-02-16T08:19:07;100832.25;;;11.70;86.80
28701;BME280;15877;52.344;16.790;2024-02-16T08:21:39;100831.25;;;11.68;87.10
28701;BME280;15877;52.344;16.790;2024-02-16T08:24:11;100828.52;;;11.76;87.14
28701;BME280;15877;52.344;16.790;2024-02-16T08:26:43;100829.67;;;11.78;86.29
28701;BME280;15877;52.344;16.790;2024-02-16T08:29:16;100828.97;;;11.85;86.09
28701;BME280;15877;52.344;16.790;2024-02-16T08:31:48;100829.22;;;11.93;85.52
28701;BME280;15877;52.344;16.790;2024-02-16T08:34:21;100829.31;;;11.97;85.42
28701;BME280;15877;52.344;16.790;2024-02-16T08:36:53;100834.13;;;11.99;84.54
28701;BME280;15877;52.344;16.790;2024-02-16T08:39:26;100831.45;;;12.00;83.99
28701;BME280;15877;52.344;16.790;2024-02-16T08:41:58;100819.20;;;12.04;83.82
28701;BME280;15877;52.344;16.790;2024-02-16T08:44:30;100833.82;;;12.17;82.88
28701;BME280;15877;52.344;16.790;2024-02-16T08:47:03;100837.86;;;12.16;82.34
28701;BME280;15877;52.344;16.790;2024-02-16T08:49:35;100825.22;;;12.16;81.80
28701;BME280;15877;52.344;16.790;2024-02-16T08:52:08;100829.58;;;12.24;81.79
28701;BME280;15877;52.344;16.790;2024-02-16T08:54:40;100835.35;;;12.29;81.46
28701;BME280;15877;52.344;16.790;2024-02-16T08:57:14;100833.56;;;12.31;80.87
28701;BME280;15877;52.344;16.790;2024-02-16T08:59:47;100828.91;;;12.37;80.76
28701;BME280;15877;52.344;16.790;2024-02-16T09:02:19;100825.23;;;12.44;80.06
28701;BME280;15877;52.344;16.790;2024-02-16T09:04:51;100823.59;;;12.53;79.94
28701;BME280;15877;52.344;16.790;2024-02-16T09:07:26;100811.89;;;12.53;79.82
28701;BME280;15877;52.344;16.790;2024-02-16T09:09:58;100826.30;;;12.61;79.18
28701;BME280;15877;52.344;16.790;2024-02-16T09:12:37;100826.91;;;12.64;78.77
28701;BME280;15877;52.344;16.790;2024-02-16T09:15:11;100824.75;;;12.67;78.93
28701;BME280;15877;52.344;16.790;2024-02-16T09:17:44;100824.14;;;12.72;78.15
28701;BME280;15877;52.344;16.790;2024-02-16T09:20:16;100820.33;;;12.69;77.68
28701;BME280;15877;52.344;16.790;2024-02-16T09:22:53;100823.66;;;12.73;77.54
28701;BME280;15877;52.344;16.790;2024-02-16T09:25:25;100825.17;;;12.85;77.45
28701;BME280;15877;52.344;16.790;2024-02-16T09:27:57;100822.26;;;12.82;76.31
28701;BME280;15877;52.344;16.790;2024-02-16T09:30:30;100827.16;;;12.85;76.37
28701;BME280;15877;52.344;16.790;2024-02-16T09:33:03;100832.27;;;12.84;76.39
28701;BME280;15877;52.344;16.790;2024-02-16T09:35:35;100827.18;;;12.98;76.67
28701;BME280;15877;52.344;16.790;2024-02-16T09:38:07;100828.77;;;13.01;77.03
28701;BME280;15877;52.344;16.790;2024-02-16T09:40:41;100825.39;;;13.03;77.24
28701;BME280;15877;52.344;16.790;2024-02-16T09:43:24;100819.70;;;13.10;77.14
28701;BME280;15877;52.344;16.790;2024-02-16T09:45:58;100819.92;;;13.23;76.50
28701;BME280;15877;52.344;16.790;2024-02-16T09:48:31;100814.63;;;13.35;75.84
28701;BME280;15877;52.344;16.790;2024-02-16T09:51:04;100816.48;;;13.36;74.47
28701;BME280;15877;52.344;16.790;2024-02-16T09:53:36;100816.13;;;13.43;74.18
28701;BME280;15877;52.344;16.790;2024-02-16T09:56:08;100818.02;;;13.52;74.72
28701;BME280;15877;52.344;16.790;2024-02-16T09:58:40;100818.95;;;13.55;74.33
28701;BME280;15877;52.344;16.790;2024-02-16T10:01:19;100814.73;;;13.61;73.52
28701;BME280;15877;52.344;16.790;2024-02-16T10:03:52;100813.31;;;13.71;73.93
28701;BME280;15877;52.344;16.790;2024-02-16T10:06:24;100802.02;;;13.84;73.83
28701;BME280;15877;52.344;16.790;2024-02-16T10:08:56;100804.34;;;13.91;73.00
28701;BME280;15877;52.344;16.790;2024-02-16T10:11:29;100800.96;;;13.95;73.04
28701;BME280;15877;52.344;16.790;2024-02-16T10:14:02;100801.70;;;14.03;73.46
28701;BME280;15877;52.344;16.790;2024-02-16T10:16:35;100787.54;;;13.93;73.65
28701;BME280;15877;52.344;16.790;2024-02-16T10:19:08;100794.35;;;13.96;72.87
28701;BME280;15877;52.344;16.790;2024-02-16T10:21:46;100795.53;;;14.00;73.00
28701;BME280;15877;52.344;16.790;2024-02-16T10:24:22;100793.55;;;14.07;72.63
28701;BME280;15877;52.344;16.790;2024-02-16T10:26:56;100791.98;;;14.03;71.96
28701;BME280;15877;52.344;16.790;2024-02-16T10:29:28;100788.56;;;14.04;71.88
28701;BME280;15877;52.344;16.790;2024-02-16T10:32:02;100786.69;;;14.01;71.49
28701;BME280;15877;52.344;16.790;2024-02-16T10:34:36;100783.84;;;14.03;72.07
28701;BME280;15877;52.344;16.790;2024-02-16T10:37:11;100781.37;;;14.03;72.18
28701;BME280;15877;52.344;16.790;2024-02-16T10:40:15;100776.55;;;14.06;72.38
28701;BME280;15877;52.344;16.790;2024-02-16T10:42:50;100774.73;;;13.96;71.67
28701;BME280;15877;52.344;16.790;2024-02-16T10:45:23;100772.00;;;13.95;71.57
28701;BME280;15877;52.344;16.790;2024-02-16T10:47:55;100769.97;;;13.98;71.88
28701;BME280;15877;52.344;16.790;2024-02-16T10:50:27;100770.37;;;14.04;71.94
28701;BME280;15877;52.344;16.790;2024-02-16T10:53:02;100766.14;;;14.10;71.80
28701;BME280;15877;52.344;16.790;2024-02-16T10:55:36;100761.55;;;14.14;72.05
28701;BME280;15877;52.344;16.790;2024-02-16T10:58:09;100760.89;;;14.13;71.80
28701;BME280;15877;52.344;16.790;2024-02-16T11:00:51;100762.56;;;14.18;71.69
28701;BME280;15877;52.344;16.790;2024-02-16T11:03:25;100758.77;;;14.26;72.04
28701;BME280;15877;52.344;16.790;2024-02-16T11:06:00;100760.86;;;14.33;71.39
28701;BME280;15877;52.344;16.790;2024-02-16T11:08:39;100761.04;;;14.28;70.79
28701;BME280;15877;52.344;16.790;2024-02-16T11:11:11;100761.23;;;14.37;71.17
28701;BME280;15877;52.344;16.790;2024-02-16T11:13:43;100767.85;;;14.36;70.83
28701;BME280;15877;52.344;16.790;2024-02-16T11:16:19;100762.59;;;14.37;71.51
28701;BME280;15877;52.344;16.790;2024-02-16T11:18:52;100761.20;;;14.41;71.16
28701;BME280;15877;52.344;16.790;2024-02-16T11:21:25;100755.23;;;14.44;70.54
28701;BME280;15877;52.344;16.790;2024-02-16T11:24:06;100751.92;;;14.40;69.87
28701;BME280;15877;52.344;16.790;2024-02-16T11:26:46;100748.19;;;14.49;70.31
28701;BME280;15877;52.344;16.790;2024-02-16T11:29:18;100743.16;;;14.49;70.29
28701;BME280;15877;52.344;16.790;2024-02-16T11:31:51;100718.34;;;14.51;70.45
28701;BME280;15877;52.344;16.790;2024-02-16T11:34:25;100730.93;;;14.63;70.00
28701;BME280;15877;52.344;16.790;2024-02-16T11:36:58;100724.73;;;14.58;69.72
28701;BME280;15877;52.344;16.790;2024-02-16T11:39:31;100728.99;;;14.61;70.18
28701;BME280;15877;52.344;16.790;2024-02-16T11:42:07;100728.65;;;14.60;69.11
28701;BME280;15877;52.344;16.790;2024-02-16T11:44:51;100723.39;;;14.53;69.24
28701;BME280;15877;52.344;16.790;2024-02-16T11:47:25;100723.08;;;14.60;69.89
28701;BME280;15877;52.344;16.790;2024-02-16T11:50:04;100719.27;;;14.57;69.53
28701;BME280;15877;52.344;16.790;2024-02-16T11:52:38;100721.82;;;14.56;69.11
28701;BME280;15877;52.344;16.790;2024-02-16T11:55:11;100720.08;;;14.57;69.31
28701;BME280;15877;52.344;16.790;2024-02-16T11:57:45;100717.78;;;14.58;69.14
28701;BME280;15877;52.344;16.790;2024-02-16T12:00:21;100712.98;;;14.51;69.46
28701;BME280;15877;52.344;16.790;2024-02-16T12:03:19;100715.54;;;14.58;69.81
28701;BME280;15877;52.344;16.790;2024-02-16T12:05:54;100710.43;;;14.59;69.04
28701;BME280;15877;52.344;16.790;2024-02-16T12:08:34;100711.72;;;14.60;68.79
28701;BME280;15877;52.344;16.790;2024-02-16T12:11:08;100706.63;;;14.63;69.15
28701;BME280;15877;52.344;16.790;2024-02-16T12:13:42;100696.09;;;14.63;69.58
28701;BME280;15877;52.344;16.790;2024-02-16T12:16:15;100693.71;;;14.65;69.71
28701;BME280;15877;52.344;16.790;2024-02-16T12:18:50;100697.16;;;14.67;68.89
28701;BME280;15877;52.344;16.790;2024-02-16T12:21:23;100696.76;;;14.67;69.14
28701;BME280;15877;52.344;16.790;2024-02-16T12:24:14;100694.16;;;14.71;69.13
28701;BME280;15877;52.344;16.790;2024-02-16T12:26:47;100692.57;;;14.71;69.45
28701;BME280;15877;52.344;16.790;2024-02-16T12:29:19;100694.66;;;14.72;69.45
28701;BME280;15877;52.344;16.790;2024-02-16T12:31:51;100693.57;;;14.76;69.56
28701;BME280;15877;52.344;16.790;2024-02-16T12:34:23;100692.08;;;14.79;69.65
28701;BME280;15877;52.344;16.790;2024-02-16T12:36:56;100690.85;;;14.84;69.50
28701;BME280;15877;52.344;16.790;2024-02-16T12:39:29;100687.58;;;14.85;69.51
28701;BME280;15877;52.344;16.790;2024-02-16T12:42:02;100682.34;;;14.80;69.37
28701;BME280;15877;52.344;16.790;2024-02-16T12:44:34;100670.04;;;14.71;69.37
28701;BME280;15877;52.344;16.790;2024-02-16T12:47:07;100679.05;;;14.87;69.53
28701;BME280;15877;52.344;16.790;2024-02-16T12:49:39;100675.59;;;14.85;69.30
28701;BME280;15877;52.344;16.790;2024-02-16T12:52:12;100675.16;;;14.90;69.14
28701;BME280;15877;52.344;16.790;2024-02-16T12:54:54;100661.36;;;14.85;69.50
28701;BME280;15877;52.344;16.790;2024-02-16T12:57:30;100676.91;;;14.98;69.32
28701;BME280;15877;52.344;16.790;2024-02-16T13:00:02;100676.58;;;14.98;68.93
28701;BME280;15877;52.344;16.790;2024-02-16T13:02:38;100684.20;;;15.01;69.09
28701;BME280;15877;52.344;16.790;2024-02-16T13:05:10;100678.78;;;15.03;68.99
28701;BME280;15877;52.344;16.790;2024-02-16T13:07:43;100674.65;;;15.05;69.76
28701;BME280;15877;52.344;16.790;2024-02-16T13:10:15;100664.14;;;15.14;69.46
28701;BME280;15877;52.344;16.790;2024-02-16T13:12:47;100660.10;;;15.18;69.53
28701;BME280;15877;52.344;16.790;2024-02-16T13:15:20;100664.17;;;15.19;69.57
28701;BME280;15877;52.344;16.790;2024-02-16T13:17:59;100663.87;;;15.19;69.09